sensor_id;sensor_type;location;lat;lon;timestamp;temperature;humidity
48488;DHT22;34289;48.572;13.378;2023-04-03T00:54:17;5.30;99.90
48488;DHT22;34289;48.572;13.378;2023-04-03T00:56:43;5.20;99.90
48488;DHT22;34289;48.572;13.378;2023-04-03T00:59:16;5.40;99.90
48488;DHT22;34289;48.572;13.378;2023-04-03T01:04:36;5.30;99.90
48488;DHT22;34289;48.572;13.378;2023-04-03T01:07:08;5.20;99.90
48488;DHT22;34289;48.572;13.378;2023-04-03T01:09:35;5.40;99.90
48488;DHT22;34289;48.572;13.378;2023-04-03T01:12:25;5.20;99.90
48488;DHT22;34289;48.572;13.378;2023-04-03T01:14:56;5.40;99.90
48488;DHT22;34289;48.572;13.378;2023-04-03T01:28:05;5.30;99.90
48488;DHT22;34289;48.572;13.378;2023-04-03T01:30:35;5.20;99.90
48488;DHT22;34289;48.572;13.378;2023-04-03T01:33:01;5.20;99.90
48488;DHT22;34289;48.572;13.378;2023-04-03T01:35:27;5.30;99.90
48488;DHT22;34289;48.572;13.378;2023-04-03T01:37:52;5.30;99.90
48488;DHT22;34289;48.572;13.378;2023-04-03T01:40:18;5.20;99.90
48488;DHT22;34289;48.572;13.378;2023-04-03T01:42:44;5.50;99.90
48488;DHT22;34289;48.572;13.378;2023-04-03T01:45:10;5.40;99.90
48488;DHT22;34289;48.572;13.378;2023-04-03T01:54:55;5.00;99.90
48488;DHT22;34289;48.572;13.378;2023-04-03T01:57:21;5.10;99.90
48488;DHT22;34289;48.572;13.378;2023-04-03T02:09:32;5.10;99.90
48488;DHT22;34289;48.572;13.378;2023-04-03T02:16:50;5.10;99.90
48488;DHT22;34289;48.572;13.378;2023-04-03T02:19:15;5.10;99.90
48488;DHT22;34289;48.572;13.378;2023-04-03T02:38:43;5.10;99.90
48488;DHT22;34289;48.572;13.378;2023-04-03T02:41:11;5.10;99.90
48488;DHT22;34289;48.572;13.378;2023-04-03T02:43:37;4.90;99.90
48488;DHT22;34289;48.572;13.378;2023-04-03T02:46:03;5.10;99.90
48488;DHT22;34289;48.572;13.378;2023-04-03T02:58:14;4.80;99.90
48488;DHT22;34289;48.572;13.378;2023-04-03T03:00:39;4.70;99.90
48488;DHT22;34289;48.572;13.378;2023-04-03T03:03:05;5.00;99.90
48488;DHT22;34289;48.572;13.378;2023-04-03T03:05:31;4.90;99.90
48488;DHT22;34289;48.572;13.378;2023-04-03T03:07:57;5.00;99.90
48488;DHT22;34289;48.572;13.378;2023-04-03T03:12:49;5.00;99.90
48488;DHT22;34289;48.572;13.378;2023-04-03T03:15:15;4.70;99.90
48488;DHT22;34289;48.572;13.378;2023-04-03T03:20:09;4.80;99.90
48488;DHT22;34289;48.572;13.378;2023-04-03T03:25:01;5.00;99.90
48488;DHT22;34289;48.572;13.378;2023-04-03T03:29:53;4.80;99.90
48488;DHT22;34289;48.572;13.378;2023-04-03T03:32:19;4.90;99.90
48488;DHT22;34289;48.572;13.378;2023-04-03T03:34:45;4.90;99.90
48488;DHT22;34289;48.572;13.378;2023-04-03T03:42:02;5.00;99.90
48488;DHT22;34289;48.572;13.378;2023-04-03T03:46:55;5.00;99.90
48488;DHT22;34289;48.572;13.378;2023-04-03T03:49:21;4.90;99.90
48488;DHT22;34289;48.572;13.378;2023-04-03T03:54:13;6.20;99.90
48488;DHT22;34289;48.572;13.378;2023-04-03T03:56:39;4.90;99.90
48488;DHT22;34289;48.572;13.378;2023-04-03T03:59:05;4.80;99.90
48488;DHT22;34289;48.572;13.378;2023-04-03T04:01:31;5.00;99.90
48488;DHT22;34289;48.572;13.378;2023-04-03T04:08:48;4.90;99.90
48488;DHT22;34289;48.572;13.378;2023-04-03T04:13:41;4.90;99.90
48488;DHT22;34289;48.572;13.378;2023-04-03T04:16:07;5.10;99.90
48488;DHT22;34289;48.572;13.378;2023-04-03T04:18:33;4.70;99.90
48488;DHT22;34289;48.572;13.378;2023-04-03T04:20:59;4.90;99.90
48488;DHT22;34289;48.572;13.378;2023-04-03T04:33:09;4.80;99.90
48488;DHT22;34289;48.572;13.378;2023-04-03T04:40:28;4.90;99.90
48488;DHT22;34289;48.572;13.378;2023-04-03T04:45:19;4.90;99.90
48488;DHT22;34289;48.572;13.378;2023-04-03T04:57:30;4.90;99.90
48488;DHT22;34289;48.572;13.378;2023-04-03T05:09:41;4.80;99.90
48488;DHT22;34289;48.572;13.378;2023-04-03T05:14:33;4.40;99.90
48488;DHT22;34289;48.572;13.378;2023-04-03T05:16:59;4.70;99.90
48488;DHT22;34289;48.572;13.378;2023-04-03T05:19:25;4.80;99.90
48488;DHT22;34289;48.572;13.378;2023-04-03T05:34:02;4.70;99.90
48488;DHT22;34289;48.572;13.378;2023-04-03T05:46:18;4.80;99.90
48488;DHT22;34289;48.572;13.378;2023-04-03T05:51:20;4.70;99.90
48488;DHT22;34289;48.572;13.378;2023-04-03T05:53:47;4.70;99.90
48488;DHT22;34289;48.572;13.378;2023-04-03T06:40:05;5.90;99.90
48488;DHT22;34289;48.572;13.378;2023-04-03T06:47:29;5.10;99.90
48488;DHT22;34289;48.572;13.378;2023-04-03T07:02:11;5.30;99.90
48488;DHT22;34289;48.572;13.378;2023-04-03T07:19:13;5.80;99.90
48488;DHT22;34289;48.572;13.378;2023-04-03T07:21:39;5.60;99.90
48488;DHT22;34289;48.572;13.378;2023-04-03T07:31:25;5.30;99.90
48488;DHT22;34289;48.572;13.378;2023-04-03T07:33:50;5.50;99.90
48488;DHT22;34289;48.572;13.378;2023-04-03T07:36:19;5.50;99.90
48488;DHT22;34289;48.572;13.378;2023-04-03T07:41:16;5.40;99.90
48488;DHT22;34289;48.572;13.378;2023-04-03T07:51:03;5.50;99.90
48488;DHT22;34289;48.572;13.378;2023-04-03T07:55:57;5.50;99.90
48488;DHT22;34289;48.572;13.378;2023-04-03T08:05:46;5.40;99.90
48488;DHT22;34289;48.572;13.378;2023-04-03T08:08:18;5.50;99.90
48488;DHT22;34289;48.572;13.378;2023-04-03T08:10:50;5.60;99.90
48488;DHT22;34289;48.572;13.378;2023-04-03T08:37:39;6.30;99.90
48488;DHT22;34289;48.572;13.378;2023-04-03T08:40:07;6.40;99.90
48488;DHT22;34289;48.572;13.378;2023-04-03T08:45:13;6.90;99.90
48488;DHT22;34289;48.572;13.378;2023-04-03T08:47:55;7.30;99.90
48488;DHT22;34289;48.572;13.378;2023-04-03T08:50:45;7.40;97.80
48488;DHT22;34289;48.572;13.378;2023-04-03T08:53:17;7.40;99.90
48488;DHT22;34289;48.572;13.378;2023-04-03T08:55:49;7.30;99.90
48488;DHT22;34289;48.572;13.378;2023-04-03T09:00:47;7.40;96.00
48488;DHT22;34289;48.572;13.378;2023-04-03T09:03:16;7.30;96.00
48488;DHT22;34289;48.572;13.378;2023-04-03T09:05:48;7.60;96.70
48488;DHT22;34289;48.572;13.378;2023-04-03T09:08:23;7.70;97.20
48488;DHT22;34289;48.572;13.378;2023-04-03T09:10:52;7.90;96.20
48488;DHT22;34289;48.572;13.378;2023-04-03T09:13:30;7.70;95.90
48488;DHT22;34289;48.572;13.378;2023-04-03T09:16:00;7.70;96.00
48488;DHT22;34289;48.572;13.378;2023-04-03T09:18:31;7.50;96.00
48488;DHT22;34289;48.572;13.378;2023-04-03T09:25:51;7.20;94.80
48488;DHT22;34289;48.572;13.378;2023-04-03T09:33:10;8.40;99.90
48488;DHT22;34289;48.572;13.378;2023-04-03T09:35:37;8.40;95.50
48488;DHT22;34289;48.572;13.378;2023-04-03T09:40:39;8.20;93.60
48488;DHT22;34289;48.572;13.378;2023-04-03T09:45:44;7.70;94.60
48488;DHT22;34289;48.572;13.378;2023-04-03T09:50:53;8.20;99.90
48488;DHT22;34289;48.572;13.378;2023-04-03T09:53:34;7.80;92.40
48488;DHT22;34289;48.572;13.378;2023-04-03T09:58:45;8.10;98.60
48488;DHT22;34289;48.572;13.378;2023-04-03T10:01:32;8.20;97.20
48488;DHT22;34289;48.572;13.378;2023-04-03T10:06:50;8.80;93.50
48488;DHT22;34289;48.572;13.378;2023-04-03T10:09:31;8.90;95.30
48488;DHT22;34289;48.572;13.378;2023-04-03T10:14:23;7.90;98.50
48488;DHT22;34289;48.572;13.378;2023-04-03T10:19:59;8.30;95.90
48488;DHT22;34289;48.572;13.378;2023-04-03T10:22:42;8.00;99.90
48488;DHT22;34289;48.572;13.378;2023-04-03T10:30:50;8.00;99.90
48488;DHT22;34289;48.572;13.378;2023-04-03T10:34:24;8.30;94.10
48488;DHT22;34289;48.572;13.378;2023-04-03T10:36:43;8.40;93.30
48488;DHT22;34289;48.572;13.378;2023-04-03T10:46:47;9.70;93.20
48488;DHT22;34289;48.572;13.378;2023-04-03T10:51:48;9.80;91.80
48488;DHT22;34289;48.572;13.378;2023-04-03T10:54:28;9.80;92.00
48488;DHT22;34289;48.572;13.378;2023-04-03T10:57:04;9.50;97.20
48488;DHT22;34289;48.572;13.378;2023-04-03T10:59:34;9.00;91.00
48488;DHT22;34289;48.572;13.378;2023-04-03T11:02:11;8.70;99.90
48488;DHT22;34289;48.572;13.378;2023-04-03T11:07:24;8.90;91.10
48488;DHT22;34289;48.572;13.378;2023-04-03T11:10:03;9.20;94.30
48488;DHT22;34289;48.572;13.378;2023-04-03T11:12:44;8.80;92.20
48488;DHT22;34289;48.572;13.378;2023-04-03T11:15:16;8.90;91.80
48488;DHT22;34289;48.572;13.378;2023-04-03T11:17:55;9.30;97.30
48488;DHT22;34289;48.572;13.378;2023-04-03T11:20:30;8.80;89.20
48488;DHT22;34289;48.572;13.378;2023-04-03T11:25:49;8.10;98.90
48488;DHT22;34289;48.572;13.378;2023-04-03T11:36:46;8.80;98.20
48488;DHT22;34289;48.572;13.378;2023-04-03T11:39:29;9.30;93.40
48488;DHT22;34289;48.572;13.378;2023-04-03T11:42:14;9.50;90.20
48488;DHT22;34289;48.572;13.378;2023-04-03T11:44:41;9.20;98.10
48488;DHT22;34289;48.572;13.378;2023-04-03T11:47:08;8.30;90.90
48488;DHT22;34289;48.572;13.378;2023-04-03T11:50:00;7.40;99.00
48488;DHT22;34289;48.572;13.378;2023-04-03T12:13:39;9.60;91.80
48488;DHT22;34289;48.572;13.378;2023-04-03T12:16:06;8.90;92.00
48488;DHT22;34289;48.572;13.378;2023-04-03T12:23:35;8.00;92.20
48488;DHT22;34289;48.572;13.378;2023-04-03T12:26:19;7.90;92.10
48488;DHT22;34289;48.572;13.378;2023-04-03T12:28:46;7.90;99.50
48488;DHT22;34289;48.572;13.378;2023-04-03T12:34:04;7.80;92.30
48488;DHT22;34289;48.572;13.378;2023-04-03T12:36:45;8.20;99.90
48488;DHT22;34289;48.572;13.378;2023-04-03T12:45:18;9.40;97.00
48488;DHT22;34289;48.572;13.378;2023-04-03T12:47:48;8.80;98.80
48488;DHT22;34289;48.572;13.378;2023-04-03T12:50:30;8.30;92.50
48488;DHT22;34289;48.572;13.378;2023-04-03T12:53:06;7.80;90.00
48488;DHT22;34289;48.572;13.378;2023-04-03T12:55:32;7.90;95.80
48488;DHT22;34289;48.572;13.378;2023-04-03T12:58:19;7.50;90.50
48488;DHT22;34289;48.572;13.378;2023-04-03T13:03:25;7.50;99.90
48488;DHT22;34289;48.572;13.378;2023-04-03T13:05:59;8.00;93.00
48488;DHT22;34289;48.572;13.378;2023-04-03T13:11:10;7.40;99.90
48488;DHT22;34289;48.572;13.378;2023-04-03T13:13:37;7.40;91.40
48488;DHT22;34289;48.572;13.378;2023-04-03T13:16:11;7.20;96.70
48488;DHT22;34289;48.572;13.378;2023-04-03T13:23:34;7.00;97.40
48488;DHT22;34289;48.572;13.378;2023-04-03T13:26:01;7.00;97.60
48488;DHT22;34289;48.572;13.378;2023-04-03T13:28:30;8.20;99.20
48488;DHT22;34289;48.572;13.378;2023-04-03T13:31:16;6.70;97.60
48488;DHT22;34289;48.572;13.378;2023-04-03T13:34:10;6.90;94.40
48488;DHT22;34289;48.572;13.378;2023-04-03T13:36:40;6.30;99.50
48488;DHT22;34289;48.572;13.378;2023-04-03T13:41:52;6.90;99.90
48488;DHT22;34289;48.572;13.378;2023-04-03T13:46:52;6.90;99.90
48488;DHT22;34289;48.572;13.378;2023-04-03T13:49:39;6.80;94.80
48488;DHT22;34289;48.572;13.378;2023-04-03T13:52:31;6.70;91.40
48488;DHT22;34289;48.572;13.378;2023-04-03T14:03:23;6.30;94.80
48488;DHT22;34289;48.572;13.378;2023-04-03T14:05:49;5.90;99.80
48488;DHT22;34289;48.572;13.378;2023-04-03T14:10:41;7.00;99.90
48488;DHT22;34289;48.572;13.378;2023-04-03T14:13:11;7.00;93.70
48488;DHT22;34289;48.572;13.378;2023-04-03T14:18:03;7.30;95.60
48488;DHT22;34289;48.572;13.378;2023-04-03T14:27:50;7.20;90.80
48488;DHT22;34289;48.572;13.378;2023-04-03T14:30:25;7.40;99.50
48488;DHT22;34289;48.572;13.378;2023-04-03T14:35:18;7.60;92.90
48488;DHT22;34289;48.572;13.378;2023-04-03T14:37:45;7.70;92.00
48488;DHT22;34289;48.572;13.378;2023-04-03T14:40:16;7.70;91.10
48488;DHT22;34289;48.572;13.378;2023-04-03T14:45:11;7.40;90.30
48488;DHT22;34289;48.572;13.378;2023-04-03T14:47:49;7.00;91.30
48488;DHT22;34289;48.572;13.378;2023-04-03T14:50:19;6.90;92.30
48488;DHT22;34289;48.572;13.378;2023-04-03T14:52:47;6.80;96.80
48488;DHT22;34289;48.572;13.378;2023-04-03T14:55:19;6.60;91.40
48488;DHT22;34289;48.572;13.378;2023-04-03T15:00:14;6.30;91.10
48488;DHT22;34289;48.572;13.378;2023-04-03T15:05:09;5.60;91.40
48488;DHT22;34289;48.572;13.378;2023-04-03T15:07:40;5.70;91.80
48488;DHT22;34289;48.572;13.378;2023-04-03T15:10:16;5.60;91.90
48488;DHT22;34289;48.572;13.378;2023-04-03T15:12:43;6.00;92.60
48488;DHT22;34289;48.572;13.378;2023-04-03T15:20:03;6.30;92.40
48488;DHT22;34289;48.572;13.378;2023-04-03T15:41:58;5.90;92.40
48488;DHT22;34289;48.572;13.378;2023-04-03T15:46:58;5.70;94.90
48488;DHT22;34289;48.572;13.378;2023-04-03T16:08:56;5.40;92.90
48488;DHT22;34289;48.572;13.378;2023-04-03T16:11:24;5.20;92.20
48488;DHT22;34289;48.572;13.378;2023-04-03T16:16:16;5.00;94.80
48488;DHT22;34289;48.572;13.378;2023-04-03T16:28:27;5.40;99.40
48488;DHT22;34289;48.572;13.378;2023-04-03T17:00:09;5.30;99.10
48488;DHT22;34289;48.572;13.378;2023-04-03T17:09:53;5.10;99.90
48488;DHT22;34289;48.572;13.378;2023-04-03T17:12:19;5.00;99.90
48488;DHT22;34289;48.572;13.378;2023-04-03T17:19:41;4.90;93.90
48488;DHT22;34289;48.572;13.378;2023-04-03T17:31:53;4.80;99.90
48488;DHT22;34289;48.572;13.378;2023-04-03T17:34:18;4.60;99.90
48488;DHT22;34289;48.572;13.378;2023-04-03T17:56:18;4.20;97.90
48488;DHT22;34289;48.572;13.378;2023-04-03T18:01:16;4.20;98.10
48488;DHT22;34289;48.572;13.378;2023-04-03T18:06:11;4.30;98.40
48488;DHT22;34289;48.572;13.378;2023-04-03T18:08:41;4.20;98.40
48488;DHT22;34289;48.572;13.378;2023-04-03T18:16:06;4.20;99.70
48488;DHT22;34289;48.572;13.378;2023-04-03T18:40:32;3.90;99.90
48488;DHT22;34289;48.572;13.378;2023-04-03T18:43:00;4.10;99.90
48488;DHT22;34289;48.572;13.378;2023-04-03T19:44:04;2.80;99.90
48488;DHT22;34289;48.572;13.378;2023-04-03T19:58:41;2.50;99.90
48488;DHT22;34289;48.572;13.378;2023-04-03T20:01:07;2.50;99.90
48488;DHT22;34289;48.572;13.378;2023-04-03T20:03:33;2.30;99.90
48488;DHT22;34289;48.572;13.378;2023-04-03T20:06:00;3.80;99.90
48488;DHT22;34289;48.572;13.378;2023-04-03T20:08:26;2.20;99.90
48488;DHT22;34289;48.572;13.378;2023-04-03T20:10:53;3.80;99.90
48488;DHT22;34289;48.572;13.378;2023-04-03T20:13:19;2.00;99.90
48488;DHT22;34289;48.572;13.378;2023-04-03T20:15:44;2.00;99.90
48488;DHT22;34289;48.572;13.378;2023-04-03T20:18:18;1.90;99.90
48488;DHT22;34289;48.572;13.378;2023-04-03T20:20:55;1.90;99.90
48488;DHT22;34289;48.572;13.378;2023-04-03T20:23:22;1.90;99.90
48488;DHT22;34289;48.572;13.378;2023-04-03T20:25:48;4.70;99.90
48488;DHT22;34289;48.572;13.378;2023-04-03T20:28:14;1.70;99.90
48488;DHT22;34289;48.572;13.378;2023-04-03T20:30:45;1.70;99.90
48488;DHT22;34289;48.572;13.378;2023-04-03T20:33:12;1.50;99.90
48488;DHT22;34289;48.572;13.378;2023-04-03T20:35:38;3.90;99.90
48488;DHT22;34289;48.572;13.378;2023-04-03T20:38:04;3.10;99.90
48488;DHT22;34289;48.572;13.378;2023-04-03T20:40:32;1.50;99.90
48488;DHT22;34289;48.572;13.378;2023-04-03T20:42:58;1.40;99.90
48488;DHT22;34289;48.572;13.378;2023-04-03T20:45:24;1.70;99.90
48488;DHT22;34289;48.572;13.378;2023-04-03T20:47:50;1.30;99.90
48488;DHT22;34289;48.572;13.378;2023-04-03T20:50:18;1.20;99.90
48488;DHT22;34289;48.572;13.378;2023-04-03T20:52:45;1.30;99.90
48488;DHT22;34289;48.572;13.378;2023-04-03T20:55:13;1.20;99.90
48488;DHT22;34289;48.572;13.378;2023-04-03T20:57:39;1.30;99.90
48488;DHT22;34289;48.572;13.378;2023-04-03T21:00:07;1.30;99.90
48488;DHT22;34289;48.572;13.378;2023-04-03T21:02:33;1.30;99.90
48488;DHT22;34289;48.572;13.378;2023-04-03T21:05:00;1.30;99.90
48488;DHT22;34289;48.572;13.378;2023-04-03T21:19:08;1.20;99.90
48488;DHT22;34289;48.572;13.378;2023-04-03T21:21:37;1.30;99.90
48488;DHT22;34289;48.572;13.378;2023-04-03T21:24:05;1.40;99.90
48488;DHT22;34289;48.572;13.378;2023-04-03T21:26:32;1.50;99.90
48488;DHT22;34289;48.572;13.378;2023-04-03T21:28:59;3.60;99.90
48488;DHT22;34289;48.572;13.378;2023-04-03T21:31:57;2.30;99.90
48488;DHT22;34289;48.572;13.378;2023-04-03T21:34:24;1.80;99.90
48488;DHT22;34289;48.572;13.378;2023-04-03T21:36:51;1.80;99.90
48488;DHT22;34289;48.572;13.378;2023-04-03T21:39:18;1.80;99.90
48488;DHT22;34289;48.572;13.378;2023-04-03T21:41:43;3.30;99.90
48488;DHT22;34289;48.572;13.378;2023-04-03T21:44:09;1.90;99.90
48488;DHT22;34289;48.572;13.378;2023-04-03T21:46:35;4.60;99.90
48488;DHT22;34289;48.572;13.378;2023-04-03T21:49:01;4.50;99.90
48488;DHT22;34289;48.572;13.378;2023-04-03T21:51:27;3.00;99.90
48488;DHT22;34289;48.572;13.378;2023-04-03T21:53:53;2.00;99.90
48488;DHT22;34289;48.572;13.378;2023-04-03T21:56:20;3.90;99.90
48488;DHT22;34289;48.572;13.378;2023-04-03T21:58:52;1.90;99.90
48488;DHT22;34289;48.572;13.378;2023-04-03T22:01:18;3.50;99.90
48488;DHT22;34289;48.572;13.378;2023-04-03T22:03:45;3.50;99.90
48488;DHT22;34289;48.572;13.378;2023-04-03T22:06:13;3.80;99.90
48488;DHT22;34289;48.572;13.378;2023-04-03T22:08:39;1.90;99.90
48488;DHT22;34289;48.572;13.378;2023-04-03T22:11:10;3.70;99.90
48488;DHT22;34289;48.572;13.378;2023-04-03T22:13:40;2.00;99.90
48488;DHT22;34289;48.572;13.378;2023-04-03T22:16:07;2.00;99.90
48488;DHT22;34289;48.572;13.378;2023-04-03T22:18:34;2.10;99.90
48488;DHT22;34289;48.572;13.378;2023-04-03T22:20:59;4.40;99.90
48488;DHT22;34289;48.572;13.378;2023-04-03T22:23:25;3.90;99.90
48488;DHT22;34289;48.572;13.378;2023-04-03T22:26:04;2.10;99.90
48488;DHT22;34289;48.572;13.378;2023-04-03T22:28:31;3.80;99.90
48488;DHT22;34289;48.572;13.378;2023-04-03T22:31:00;2.30;99.90
48488;DHT22;34289;48.572;13.378;2023-04-03T22:33:26;2.20;99.90
48488;DHT22;34289;48.572;13.378;2023-04-03T22:35:52;4.50;99.90
48488;DHT22;34289;48.572;13.378;2023-04-03T22:38:17;2.30;99.90
48488;DHT22;34289;48.572;13.378;2023-04-03T22:40:43;3.80;99.90
48488;DHT22;34289;48.572;13.378;2023-04-03T22:43:12;2.50;99.90
48488;DHT22;34289;48.572;13.378;2023-04-03T22:45:48;2.80;99.90
48488;DHT22;34289;48.572;13.378;2023-04-03T22:48:14;2.60;99.90
48488;DHT22;34289;48.572;13.378;2023-04-03T22:50:40;2.60;99.90
48488;DHT22;34289;48.572;13.378;2023-04-03T22:53:07;2.60;99.90
48488;DHT22;34289;48.572;13.378;2023-04-03T22:55:33;4.30;99.90
48488;DHT22;34289;48.572;13.378;2023-04-03T22:57:58;4.10;99.90
48488;DHT22;34289;48.572;13.378;2023-04-03T23:00:24;2.50;99.90
48488;DHT22;34289;48.572;13.378;2023-04-03T23:02:52;2.40;99.90
48488;DHT22;34289;48.572;13.378;2023-04-03T23:05:18;2.30;99.90
48488;DHT22;34289;48.572;13.378;2023-04-03T23:07:43;2.40;99.90
48488;DHT22;34289;48.572;13.378;2023-04-03T23:10:09;2.40;99.90
48488;DHT22;34289;48.572;13.378;2023-04-03T23:12:36;4.60;99.90
48488;DHT22;34289;48.572;13.378;2023-04-03T23:15:03;4.40;99.90
48488;DHT22;34289;48.572;13.378;2023-04-03T23:17:29;2.60;99.90
48488;DHT22;34289;48.572;13.378;2023-04-03T23:19:55;2.50;99.90
48488;DHT22;34289;48.572;13.378;2023-04-03T23:22:20;5.00;99.90
48488;DHT22;34289;48.572;13.378;2023-04-03T23:24:46;2.60;99.90
48488;DHT22;34289;48.572;13.378;2023-04-03T23:27:12;2.60;99.90
48488;DHT22;34289;48.572;13.378;2023-04-03T23:29:38;2.70;99.90
48488;DHT22;34289;48.572;13.378;2023-04-03T23:32:06;2.70;99.90
48488;DHT22;34289;48.572;13.378;2023-04-03T23:34:31;2.60;99.90
48488;DHT22;34289;48.572;13.378;2023-04-03T23:36:57;3.70;99.90
48488;DHT22;34289;48.572;13.378;2023-04-03T23:39:25;2.70;99.90
48488;DHT22;34289;48.572;13.378;2023-04-03T23:41:52;2.80;99.90
48488;DHT22;34289;48.572;13.378;2023-04-03T23:44:17;2.80;99.90
48488;DHT22;34289;48.572;13.378;2023-04-03T23:46:43;2.80;99.90
48488;DHT22;34289;48.572;13.378;2023-04-03T23:49:09;3.20;99.90
48488;DHT22;34289;48.572;13.378;2023-04-03T23:51:35;2.80;99.90
48488;DHT22;34289;48.572;13.378;2023-04-03T23:54:00;2.80;99.90
48488;DHT22;34289;48.572;13.378;2023-04-03T23:56:26;2.80;99.90
48488;DHT22;34289;48.572;13.378;2023-04-03T23:58:52;2.70;99.90
